createdAt,value
2018-07-19T00:01:56.549Z,99866.19
2018-07-19T00:07:01.337Z,99859.58
2018-07-19T00:12:06.390Z,99860.88
2018-07-19T00:17:11.226Z,99867.69
2018-07-19T00:22:16.123Z,99864.59
2018-07-19T00:27:21.163Z,99863.56
2018-07-19T00:32:25.980Z,99862.30
2018-07-19T00:37:31.019Z,99872.19
2018-07-19T00:42:35.902Z,99866.70
2018-07-19T00:47:40.847Z,99860.51
2018-07-19T00:52:45.567Z,99860.70
2018-07-19T00:57:50.876Z,99863.67
2018-07-19T01:02:55.612Z,99867.95
2018-07-19T01:08:00.293Z,99872.30
2018-07-19T01:13:05.416Z,99870.06
2018-07-19T01:18:10.318Z,99878.72
2018-07-19T01:23:15.063Z,99881.11
2018-07-19T01:28:20.220Z,99882.89
2018-07-19T01:33:24.987Z,99885.24
2018-07-19T01:38:29.766Z,99890.20
2018-07-19T01:43:34.434Z,99893.39
2018-07-19T01:48:39.222Z,99889.50
2018-07-19T01:53:43.954Z,99888.08
2018-07-19T01:58:48.928Z,99893.45
2018-07-19T02:03:53.703Z,99896.16
2018-07-19T02:08:58.413Z,99895.41
2018-07-19T02:14:03.142Z,99903.53
2018-07-19T02:19:07.933Z,99898.20
2018-07-19T02:24:12.999Z,99903.34
2018-07-19T02:29:17.922Z,99899.23
2018-07-19T02:34:22.720Z,99901.33
2018-07-19T02:39:27.413Z,99903.08
2018-07-19T02:44:32.127Z,99904.78
2018-07-19T02:49:36.874Z,99907.53
2018-07-19T02:54:41.622Z,99916.22
2018-07-19T02:59:46.285Z,99910.27
2018-07-19T03:04:51.080Z,99912.34
2018-07-19T03:09:57.293Z,99910.80
2018-07-19T03:15:01.924Z,99909.92
2018-07-19T03:20:06.695Z,99902.72
2018-07-19T03:25:11.553Z,99905.25
2018-07-19T03:30:16.491Z,99907.92
2018-07-19T03:35:21.283Z,99907.32
2018-07-19T03:40:25.733Z,99908.25
2018-07-19T03:45:30.486Z,99914.52
2018-07-19T03:50:35.273Z,99913.58
2018-07-19T03:55:39.975Z,99909.02
2018-07-19T04:00:44.759Z,99909.77
2018-07-19T04:05:49.471Z,99913.80
2018-07-19T04:10:54.199Z,99907.35
2018-07-19T04:15:59.077Z,99907.13
2018-07-19T04:21:03.873Z,99907.55
2018-07-19T04:26:08.575Z,99910.95
2018-07-19T04:31:13.360Z,99907.63
2018-07-19T04:36:18.220Z,99914.80
2018-07-19T04:41:23.070Z,99915.63
2018-07-19T04:46:27.857Z,99914.67
2018-07-19T04:51:32.737Z,99916.30
2018-07-19T04:56:37.460Z,99916.38
2018-07-19T05:01:42.258Z,99913.98
2018-07-19T05:06:46.647Z,99915.67
2018-07-19T05:11:51.360Z,99917.55
2018-07-19T05:16:56.120Z,99918.34
2018-07-19T05:22:00.885Z,99919.48
2018-07-19T05:27:05.563Z,99916.53
2018-07-19T05:32:10.318Z,99917.75
2018-07-19T05:37:15.142Z,99921.81
2018-07-19T05:42:19.826Z,99916.87
2018-07-19T05:47:24.597Z,99919.73
2018-07-19T05:52:29.316Z,99914.44
2018-07-19T05:57:34.014Z,99918.14
2018-07-19T06:02:38.739Z,99920.72
2018-07-19T06:07:43.792Z,99916.61
2018-07-19T06:12:48.585Z,99915.98
2018-07-19T06:17:53.284Z,99921.14
2018-07-19T06:22:58.006Z,99911.39
2018-07-19T06:28:02.748Z,99908.98
2018-07-19T06:33:07.718Z,99911.78
2018-07-19T06:38:12.620Z,99920.88
2018-07-19T06:43:17.284Z,99925.95
2018-07-19T06:48:22.076Z,99921.56
2018-07-19T06:53:26.798Z,99922.83
2018-07-19T06:58:31.511Z,99920.28
2018-07-19T07:03:36.270Z,99921.98
2018-07-19T07:08:41.100Z,99917.25
2018-07-19T07:13:46.040Z,99916.84
2018-07-19T07:18:50.758Z,99903.89
2018-07-19T07:23:55.418Z,99914.22
2018-07-19T07:29:00.090Z,99903.39
2018-07-19T07:34:04.863Z,99905.00
2018-07-19T07:39:10.930Z,99902.45
2018-07-19T07:44:15.664Z,99905.73
2018-07-19T07:49:20.406Z,99907.79
2018-07-19T07:54:25.100Z,99910.92
2018-07-19T07:59:29.869Z,99914.08
2018-07-19T08:04:34.644Z,99911.16
2018-07-19T08:09:39.336Z,99899.69
2018-07-19T08:14:44.116Z,99897.38
2018-07-19T08:19:48.804Z,99890.83
2018-07-19T08:24:53.489Z,99896.47
2018-07-19T08:29:58.272Z,99880.63
2018-07-19T08:35:03.008Z,99889.63
2018-07-19T08:40:07.898Z,99888.23
2018-07-19T08:45:12.672Z,99887.73
2018-07-19T08:50:17.308Z,99882.62
2018-07-19T08:55:21.998Z,99881.14
2018-07-19T09:00:26.627Z,99879.78
2018-07-19T09:05:31.311Z,99874.20
2018-07-19T09:10:36.203Z,99878.66
2018-07-19T09:15:40.878Z,99873.83
2018-07-19T09:20:45.674Z,99875.05
2018-07-19T09:25:50.342Z,99863.87
2018-07-19T09:30:55.021Z,99868.60
2018-07-19T09:35:59.713Z,99868.94
2018-07-19T09:41:04.370Z,99864.64
2018-07-19T09:46:09.195Z,99854.20
2018-07-19T09:51:13.948Z,99858.98
2018-07-19T09:56:18.666Z,99856.72
2018-07-19T10:01:23.482Z,99852.95
2018-07-19T10:06:28.114Z,99852.11
2018-07-19T10:11:32.820Z,99844.06
2018-07-19T10:16:37.728Z,99839.41
2018-07-19T10:21:42.773Z,99835.97
2018-07-19T10:26:47.531Z,99843.76
2018-07-19T10:31:52.311Z,99828.86
2018-07-19T10:36:57.070Z,99835.03
2018-07-19T10:42:02.012Z,99826.47
2018-07-19T10:47:06.710Z,99831.14
2018-07-19T10:52:11.445Z,99826.85
2018-07-19T10:57:16.095Z,99824.62
2018-07-19T11:02:20.850Z,99816.69
2018-07-19T11:07:25.490Z,99807.31
2018-07-19T11:12:30.126Z,99804.60
2018-07-19T11:17:34.847Z,99806.95
2018-07-19T11:22:39.591Z,99791.73
2018-07-19T11:27:44.329Z,99791.80
2018-07-19T11:32:49.051Z,99783.83
2018-07-19T11:37:53.829Z,99786.88
2018-07-19T11:42:58.501Z,99780.07
2018-07-19T11:48:03.229Z,99776.86
2018-07-19T11:53:07.965Z,99773.62
2018-07-19T11:58:12.577Z,99765.63
2018-07-19T12:03:17.245Z,99766.30
2018-07-19T12:08:21.927Z,99761.33
2018-07-19T12:13:26.996Z,99761.75
2018-07-19T12:18:31.940Z,99751.46
2018-07-19T12:23:36.627Z,99736.70
2018-07-19T12:28:41.486Z,99737.91
2018-07-19T12:33:46.230Z,99730.75
2018-07-19T12:38:50.875Z,99730.00
2018-07-19T12:43:56.412Z,99723.06
2018-07-19T12:49:01.207Z,99726.80
2018-07-19T12:54:06.347Z,99721.27
2018-07-19T12:59:11.035Z,99717.77
2018-07-19T13:04:15.737Z,99707.38
2018-07-19T13:09:20.565Z,99703.47
2018-07-19T13:14:26.102Z,99709.34
2018-07-19T13:19:30.813Z,99701.02
2018-07-19T13:24:35.469Z,99701.70
2018-07-19T13:29:40.153Z,99688.69
2018-07-19T13:34:45.003Z,99695.14
2018-07-19T13:39:49.697Z,99688.51
2018-07-19T13:44:54.571Z,99688.64
2018-07-19T13:49:59.929Z,99688.42
2018-07-19T13:55:04.703Z,99686.83
2018-07-19T14:00:09.489Z,99682.95
2018-07-19T14:05:14.323Z,99676.25
2018-07-19T14:10:19.003Z,99677.69
2018-07-19T14:15:23.684Z,99666.92
2018-07-19T14:20:28.371Z,99657.86
2018-07-19T14:25:33.198Z,99657.23
2018-07-19T14:30:37.913Z,99651.44
2018-07-19T14:35:42.631Z,99647.55
2018-07-19T14:40:47.289Z,99651.37
2018-07-19T14:45:52.004Z,99649.83
2018-07-19T14:50:56.649Z,99647.33
2018-07-19T14:56:01.387Z,99642.00
2018-07-19T15:01:06.296Z,99634.57
2018-07-19T15:06:11.009Z,99628.52
2018-07-19T15:11:15.806Z,99622.97
2018-07-19T15:16:20.697Z,99625.03
2018-07-19T15:21:25.337Z,99617.99
2018-07-19T15:26:30.005Z,99610.03
2018-07-19T15:31:34.670Z,99610.50
2018-07-19T15:36:40.303Z,99611.50
2018-07-19T15:41:45.048Z,99601.85
2018-07-19T15:46:49.696Z,99605.39
2018-07-19T15:51:54.433Z,99587.09
2018-07-19T15:56:59.269Z,99594.95
2018-07-19T16:02:04.051Z,99592.86
2018-07-19T16:07:08.727Z,99593.80
2018-07-19T16:12:13.501Z,99596.22
2018-07-19T16:17:18.186Z,99594.95
2018-07-19T16:22:22.925Z,99583.63
2018-07-19T16:27:27.619Z,99590.91
2018-07-19T16:32:32.464Z,99592.66
2018-07-19T16:37:37.144Z,99586.85
2018-07-19T16:42:41.937Z,99580.14
2018-07-19T16:47:46.702Z,99575.52
2018-07-19T16:52:51.406Z,99575.75
2018-07-19T16:57:55.766Z,99574.55
2018-07-19T17:03:00.614Z,99570.62
2018-07-19T17:08:05.384Z,99567.49
2018-07-19T17:13:10.228Z,99562.94
2018-07-19T17:18:14.879Z,99562.09
2018-07-19T17:23:19.548Z,99572.58
2018-07-19T17:28:24.260Z,99572.43
2018-07-19T17:33:29.049Z,99570.86
2018-07-19T17:38:33.757Z,99570.28
2018-07-19T17:43:38.538Z,99571.97
2018-07-19T17:48:43.386Z,99575.44
2018-07-19T17:53:48.066Z,99564.48
2018-07-19T17:58:52.781Z,99572.75
2018-07-19T18:03:57.549Z,99572.73
2018-07-19T18:09:03.036Z,99569.38
2018-07-19T18:14:08.072Z,99564.14
2018-07-19T18:19:12.786Z,99568.91
2018-07-19T18:24:17.558Z,99557.72
2018-07-19T18:29:22.474Z,99559.38
2018-07-19T18:34:27.307Z,99563.37
2018-07-19T18:39:32.024Z,99560.92
2018-07-19T18:44:36.777Z,99555.07
2018-07-19T18:49:41.604Z,99557.55
2018-07-19T18:54:46.636Z,99563.92
2018-07-19T18:59:51.510Z,99567.83
2018-07-19T19:04:56.266Z,99564.31
2018-07-19T19:10:01.209Z,99565.53
2018-07-19T19:15:07.092Z,99573.66
2018-07-19T19:20:11.948Z,99579.06
2018-07-19T19:25:16.780Z,99582.13
2018-07-19T19:30:21.529Z,99589.91
2018-07-19T19:35:26.346Z,99586.32
2018-07-19T19:40:31.032Z,99589.39
2018-07-19T19:45:35.942Z,99591.22
2018-07-19T19:50:40.944Z,99585.78
2018-07-19T19:55:46.051Z,99594.42
2018-07-19T20:00:51.123Z,99597.53
2018-07-19T20:05:55.892Z,99599.81
2018-07-19T20:11:00.894Z,99606.13
2018-07-19T20:16:05.719Z,99613.98
2018-07-19T20:21:10.443Z,99618.98
2018-07-19T20:26:15.448Z,99628.61
2018-07-19T20:31:20.376Z,99626.73
2018-07-19T20:36:25.150Z,99632.47
2018-07-19T20:41:29.999Z,99631.94
2018-07-19T20:46:34.792Z,99631.12
2018-07-19T20:51:39.556Z,99641.48
2018-07-19T20:56:44.383Z,99647.19
2018-07-19T21:01:49.093Z,99647.50
2018-07-19T21:06:53.808Z,99654.53
2018-07-19T21:11:58.543Z,99655.24
2018-07-19T21:17:03.285Z,99652.84
2018-07-19T21:22:08.285Z,99661.73
2018-07-19T21:27:13.077Z,99655.95
2018-07-19T21:32:17.742Z,99662.84
2018-07-19T21:37:22.595Z,99670.64
2018-07-19T21:42:27.412Z,99666.27
2018-07-19T21:47:32.144Z,99668.39
2018-07-19T21:52:36.815Z,99671.38
2018-07-19T21:57:41.529Z,99667.78
2018-07-19T22:02:46.299Z,99660.81
2018-07-19T22:07:51.111Z,99664.83
2018-07-19T22:12:55.733Z,99668.19
2018-07-19T22:18:00.473Z,99663.77
2018-07-19T22:23:05.164Z,99668.00
2018-07-19T22:28:09.835Z,99672.41
2018-07-19T22:33:14.519Z,99679.26
2018-07-19T22:38:19.143Z,99676.63
2018-07-19T22:43:23.768Z,99676.01
2018-07-19T22:48:28.498Z,99678.08
2018-07-19T22:53:33.305Z,99676.28
2018-07-19T22:58:37.989Z,99681.96
2018-07-19T23:03:42.428Z,99677.41
2018-07-19T23:08:47.673Z,99673.36
2018-07-19T23:13:52.358Z,99677.38
2018-07-19T23:18:57.045Z,99671.53
2018-07-19T23:24:01.685Z,99671.86
2018-07-19T23:29:06.393Z,99669.56
2018-07-19T23:34:11.083Z,99674.23
2018-07-19T23:39:33.333Z,99668.37
2018-07-19T23:44:43.330Z,99679.73
2018-07-19T23:49:48.208Z,99666.28
2018-07-19T23:54:52.879Z,99666.34
2018-07-19T23:59:57.581Z,99664.76
